Time;durP1;ratioP1;P1;durP2;ratioP2;P2;SDS_P1;SDS_P2;PMS_P1;PMS_P2;Temp;Humidity;BMP_temperature;BMP_pressure;BME280_temperature;BME280_humidity;BME280_pressure;Samples;Min_cycle;Max_cycle;Signal;HPM_P1;HPM_P2
2022/04/17 01:28:18;;;;;;;2.43;0.73;;;6.20;87.20;;;;;;4925762;29;20031;-89
2022/04/17 01:30:44;;;;;;;;;;;6.10;86.30;;;;;;4925542;29;20028;-89
2022/04/17 01:33:10;;;;;;;1.35;0.63;;;6.20;86.80;;;;;;4898209;29;19907;-89
2022/04/17 01:35:35;;;;;;;2.00;0.77;;;6.20;86.60;;;;;;4913673;29;20020;-89
2022/04/17 01:38:01;;;;;;;1.43;0.70;;;6.20;86.90;;;;;;4897350;29;20028;-89
2022/04/17 01:40:26;;;;;;;2.10;0.70;;;6.20;86.90;;;;;;4892299;29;20491;-89
2022/04/17 01:42:52;;;;;;;1.40;0.60;;;6.10;86.10;;;;;;4895588;29;20060;-88
2022/04/17 01:45:18;;;;;;;2.33;1.00;;;6.20;87.60;;;;;;4893656;29;20525;-88
2022/04/17 01:47:49;;;;;;;2.30;0.77;;;6.20;87.60;;;;;;4890062;29;20529;-88
2022/04/17 01:50:14;;;;;;;1.80;0.73;;;6.10;87.50;;;;;;4909485;29;20030;-88
2022/04/17 01:52:43;;;;;;;3.27;1.00;;;6.10;87.90;;;;;;4905851;29;20024;-87
2022/04/17 01:55:10;;;;;;;2.30;0.85;;;6.10;88.20;;;;;;4911215;29;20035;-88
2022/04/17 01:57:36;;;;;;;2.83;0.90;;;6.10;88.50;;;;;;4914197;29;20075;-88
2022/04/17 02:00:02;;;;;;;2.58;0.95;;;6.10;88.80;;;;;;4897029;29;20500;-89
2022/04/17 02:02:38;;;;;;;2.73;1.20;;;6.00;88.40;;;;;;4899796;29;20052;-89
2022/04/17 02:05:04;;;;;;;3.90;1.27;;;6.00;88.60;;;;;;4914775;29;20028;-89
2022/04/17 02:07:37;;;;;;;2.13;1.20;;;6.00;88.90;;;;;;4900571;29;20483;-88
2022/04/17 02:10:04;;;;;;;1.60;0.70;;;6.00;88.30;;;;;;4912580;29;20033;-88
2022/04/17 02:12:30;;;;;;;3.05;1.00;;;5.90;89.00;;;;;;4899548;29;20032;-89
2022/04/17 02:14:58;;;;;;;2.23;0.90;;;5.70;89.30;;;;;;4914070;29;20020;-88
2022/04/17 02:17:24;;;;;;;4.10;0.90;;;6.10;89.60;;;;;;4915493;29;20420;-88
2022/04/17 02:19:51;;;;;;;2.83;1.05;;;6.10;89.70;;;;;;4898733;29;20542;-88
2022/04/17 02:22:17;;;;;;;2.55;1.02;;;5.90;89.80;;;;;;4917768;29;20622;-88
2022/04/17 02:24:42;;;;;;;2.13;1.00;;;5.90;89.50;;;;;;4899033;29;20111;-89
2022/04/17 02:27:08;;;;;;;2.47;1.00;;;5.80;89.70;;;;;;4915536;29;20107;-89
2022/04/17 02:29:34;;;;;;;3.57;1.10;;;6.00;90.40;;;;;;4916605;29;20026;-89
2022/04/17 02:32:00;;;;;;;2.15;0.90;;;5.90;89.70;;;;;;4900846;29;20016;-88
2022/04/17 02:34:26;;;;;;;2.60;0.90;;;5.80;90.30;;;;;;4917195;29;20504;-89
2022/04/17 02:36:54;;;;;;;4.37;1.23;;;5.90;90.10;;;;;;4916709;29;20087;-89
2022/04/17 02:39:20;;;;;;;3.15;0.75;;;5.80;89.50;;;;;;4903908;29;20161;-89
2022/04/17 02:41:46;;;;;;;2.78;0.90;;;5.80;90.00;;;;;;4898200;29;20036;-89
2022/04/17 02:44:12;;;;;;;3.22;1.05;;;5.70;90.00;;;;;;4900965;29;20036;-88
2022/04/17 02:49:21;;;;;;;1.50;0.95;;;5.60;90.20;;;;;;4917803;29;20056;-88
2022/04/17 02:51:50;;;;;;;1.97;1.00;;;5.70;90.80;;;;;;4915358;29;20020;-89
2022/04/17 02:54:16;;;;;;;2.33;0.80;;;5.60;90.70;;;;;;4915235;29;20031;-88
2022/04/17 02:56:41;;;;;;;1.63;1.03;;;5.60;90.40;;;;;;4911340;29;20028;-89
2022/04/17 02:59:07;;;;;;;1.83;0.82;;;5.60;90.50;;;;;;4916452;29;20066;-89
2022/04/17 03:07:01;;;;;;;3.20;0.93;;;5.60;90.70;;;;;;4916620;29;20063;-88
2022/04/17 03:09:27;;;;;;;1.97;0.97;;;5.40;90.80;;;;;;4917092;29;20127;-89
2022/04/17 03:11:53;;;;;;;2.33;0.87;;;5.50;90.80;;;;;;4897463;29;20016;-89
2022/04/17 03:14:18;;;;;;;1.87;0.83;;;5.30;90.70;;;;;;4899955;29;20558;-88
2022/04/17 03:16:44;;;;;;;3.10;1.10;;;5.30;91.00;;;;;;4897306;29;20448;-88
2022/04/17 03:19:09;;;;;;;2.90;1.07;;;5.20;91.00;;;;;;4898279;29;20107;-88
2022/04/17 03:21:35;;;;;;;1.57;0.83;;;5.30;91.10;;;;;;4917926;29;20028;-88
2022/04/17 03:24:01;;;;;;;2.13;1.10;;;5.20;91.00;;;;;;4898029;29;20390;-87
2022/04/17 03:26:36;;;;;;;1.93;0.97;;;5.10;91.10;;;;;;4897504;29;20032;-89
2022/04/17 03:29:01;;;;;;;1.80;0.80;;;5.20;91.30;;;;;;4899189;29;20024;-88
2022/04/17 03:31:27;;;;;;;3.47;1.10;;;5.30;91.30;;;;;;4896018;29;20467;-88
2022/04/17 03:33:53;;;;;;;3.90;1.20;;;5.10;91.30;;;;;;4895401;29;20030;-88
2022/04/17 03:36:19;;;;;;;2.33;0.80;;;5.10;91.30;;;;;;4899473;29;20083;-88
2022/04/17 03:38:44;;;;;;;2.53;0.83;;;5.00;91.50;;;;;;4896109;29;20028;-88
2022/04/17 03:41:10;;;;;;;2.73;1.13;;;5.00;91.60;;;;;;4902790;29;20510;-88
2022/04/17 03:43:35;;;;;;;2.73;0.90;;;5.10;91.40;;;;;;4901889;29;20119;-88
2022/04/17 03:46:01;;;;;;;2.07;0.90;;;5.30;91.10;;;;;;4899232;29;20039;-89
2022/04/17 03:48:26;;;;;;;3.47;1.00;;;5.00;91.20;;;;;;4918111;29;20031;-88
2022/04/17 03:50:56;;;;;;;3.13;1.27;;;5.00;91.30;;;;;;4898700;29;20032;-89
2022/04/17 03:53:22;;;;;;;2.57;1.10;;;5.30;91.50;;;;;;4899797;29;20028;-88
2022/04/17 03:55:47;;;;;;;1.83;1.03;;;5.00;91.10;;;;;;4915750;29;20028;-88
2022/04/17 03:58:13;;;;;;;2.40;0.90;;;5.00;91.30;;;;;;4902691;29;20032;-89
2022/04/17 04:00:38;;;;;;;2.10;1.10;;;5.10;91.40;;;;;;4899114;29;20110;-88
2022/04/17 04:03:04;;;;;;;2.27;1.17;;;5.00;91.50;;;;;;4895609;29;20040;-89
2022/04/17 04:05:31;;;;;;;1.87;0.83;;;5.00;91.30;;;;;;4897401;29;20039;-88
2022/04/17 04:07:57;;;;;;;2.80;1.03;;;5.00;91.30;;;;;;4894417;29;20063;-89
2022/04/17 04:10:22;;;;;;;2.07;0.93;;;5.00;91.40;;;;;;4899157;29;20063;-88
2022/04/17 04:12:48;;;;;;;2.07;0.70;;;5.00;91.30;;;;;;4914291;29;20024;-88
2022/04/17 04:15:13;;;;;;;2.70;0.97;;;5.00;91.30;;;;;;4916119;29;20059;-88
2022/04/17 04:17:39;;;;;;;4.23;1.17;;;5.00;91.20;;;;;;4914483;29;20035;-88
2022/04/17 04:20:05;;;;;;;4.43;0.93;;;4.90;91.40;;;;;;4899230;29;20032;-88
2022/04/17 04:22:31;;;;;;;2.10;0.70;;;4.90;91.60;;;;;;4899730;29;20051;-89
2022/04/17 04:24:57;;;;;;;1.83;0.73;;;4.90;91.50;;;;;;4901224;29;20028;-88
2022/04/17 04:30:08;;;;;;;2.60;1.00;;;5.00;91.60;;;;;;4914459;29;20039;-89
2022/04/17 04:32:33;;;;;;;2.67;1.00;;;5.00;91.40;;;;;;4897524;29;20052;-88
2022/04/17 04:35:00;;;;;;;1.53;0.60;;;5.00;91.40;;;;;;4895400;29;20020;-87
2022/04/17 04:37:26;;;;;;;3.60;1.20;;;5.00;91.30;;;;;;4895963;29;20077;-88
2022/04/17 04:39:51;;;;;;;3.20;0.63;;;5.00;91.20;;;;;;4895319;29;20032;-88
2022/04/17 04:42:18;;;;;;;4.73;1.00;;;5.00;91.40;;;;;;4915807;29;20039;-88
2022/04/17 04:44:43;;;;;;;2.00;0.80;;;5.00;91.70;;;;;;4894839;29;20032;-88
2022/04/17 04:47:09;;;;;;;2.07;0.63;;;5.00;91.50;;;;;;4896646;29;20025;-88
2022/04/17 04:49:35;;;;;;;2.47;0.63;;;5.10;91.40;;;;;;4898125;29;20035;-88
2022/04/17 04:52:03;;;;;;;2.93;0.80;;;5.10;91.20;;;;;;4893097;29;20127;-88
2022/04/17 04:54:29;;;;;;;1.17;0.50;;;5.00;91.20;;;;;;4898141;29;20028;-88
2022/04/17 04:56:55;;;;;;;1.83;0.50;;;5.00;91.10;;;;;;4913303;29;20031;-88
2022/04/17 04:59:30;;;;;;;1.87;0.80;;;5.10;90.80;;;;;;4913828;29;20031;-88
2022/04/17 05:01:55;;;;;;;1.40;0.67;;;5.10;90.80;;;;;;4895404;29;20036;-88
2022/04/17 05:04:23;;;;;;;2.27;0.80;;;5.10;91.10;;;;;;4899791;29;20047;-88
2022/04/17 05:06:49;;;;;;;2.17;0.60;;;5.00;90.90;;;;;;4897499;29;20066;-88
2022/04/17 05:09:14;;;;;;;1.63;0.50;;;5.10;91.20;;;;;;4893845;29;20486;-89
2022/04/17 05:11:40;;;;;;;2.27;0.90;;;5.10;91.20;;;;;;4894534;29;20060;-89
2022/04/17 05:14:09;;;;;;;2.07;0.80;;;5.30;91.00;;;;;;4892751;29;20032;-88
2022/04/17 05:16:35;;;;;;;2.87;0.87;;;5.20;91.20;;;;;;4894794;29;20043;-88
2022/04/17 05:19:20;;;;;;;3.70;0.60;;;5.30;90.80;;;;;;4895591;29;20021;-88
2022/04/17 05:21:52;;;;;;;1.87;0.70;;;5.30;90.90;;;;;;4896598;29;20061;-89
2022/04/17 05:24:17;;;;;;;1.77;0.83;;;5.30;91.10;;;;;;4893063;29;20145;-89
2022/04/17 05:26:43;;;;;;;1.30;0.60;;;5.40;90.80;;;;;;4895538;29;20526;-88
2022/04/17 05:29:09;;;;;;;1.87;0.63;;;5.40;90.60;;;;;;4913929;29;20039;-87
2022/04/17 05:31:35;;;;;;;4.53;0.70;;;5.50;90.70;;;;;;4893948;29;20025;-88
2022/04/17 05:34:02;;;;;;;1.50;0.60;;;5.50;90.70;;;;;;4894999;29;20028;-89
2022/04/17 05:36:28;;;;;;;1.53;0.57;;;5.70;90.50;;;;;;4895341;29;20028;-89
2022/04/17 05:38:55;;;;;;;1.80;0.70;;;5.70;90.60;;;;;;4893141;29;20398;-89
2022/04/17 05:41:29;;;;;;;1.73;0.73;;;5.80;90.20;;;;;;4893292;29;20036;-89
2022/04/17 05:43:56;;;;;;;1.67;0.80;;;5.80;90.20;;;;;;4914870;29;20028;-89
2022/04/17 05:46:22;;;;;;;2.40;0.60;;;5.80;89.70;;;;;;4893369;29;20570;-89
2022/04/17 05:48:48;;;;;;;2.07;0.63;;;5.90;90.10;;;;;;4901598;29;20056;-89
2022/04/17 05:51:13;;;;;;;1.77;0.63;;;6.00;90.00;;;;;;4901510;29;20047;-89
2022/04/17 05:53:39;;;;;;;3.17;0.50;;;6.00;89.60;;;;;;4899301;29;20032;-88
2022/04/17 05:56:05;;;;;;;1.70;0.60;;;6.10;89.80;;;;;;4892378;29;20089;-89
2022/04/17 05:58:31;;;;;;;2.23;0.60;;;6.10;89.30;;;;;;4893542;29;20080;-89
2022/04/17 06:00:56;;;;;;;1.27;0.60;;;6.20;88.30;;;;;;4885633;29;20040;-88
2022/04/17 06:03:30;;;;;;;1.77;0.63;;;6.30;88.90;;;;;;4914182;29;20040;-89
2022/04/17 06:05:56;;;;;;;0.90;0.50;;;6.50;88.60;;;;;;4895001;29;20064;-88
2022/04/17 06:08:23;;;;;;;1.23;0.50;;;6.50;87.50;;;;;;4912093;29;20079;-89
2022/04/17 06:10:50;;;;;;;1.50;0.70;;;6.50;87.90;;;;;;4896823;29;20028;-89
2022/04/17 06:13:16;;;;;;;2.27;0.70;;;6.80;88.10;;;;;;4889869;29;20179;-88
2022/04/17 06:15:43;;;;;;;1.60;0.45;;;7.00;87.50;;;;;;4892448;29;20647;-89
2022/04/17 06:18:08;;;;;;;1.23;0.50;;;7.00;87.30;;;;;;4894520;29;20111;-88
2022/04/17 06:20:34;;;;;;;1.37;0.53;;;6.80;87.30;;;;;;4895189;29;20183;-88
2022/04/17 06:23:01;;;;;;;2.67;0.68;;;7.00;87.10;;;;;;4892481;29;20072;-88
2022/04/17 06:25:26;;;;;;;1.98;0.70;;;7.40;86.10;;;;;;4912688;29;20071;-88
2022/04/17 06:27:52;;;;;;;3.35;0.70;;;7.00;86.20;;;;;;4913591;29;20086;-88
2022/04/17 06:30:21;;;;;;;3.47;0.70;;;7.10;85.90;;;;;;4908156;29;20036;-89
2022/04/17 06:32:47;;;;;;;0.80;0.50;;;7.10;85.60;;;;;;4892014;29;20083;-88
2022/04/17 06:35:15;;;;;;;4.28;0.60;;;7.30;86.20;;;;;;4905810;29;20040;-88
2022/04/17 06:37:59;;;;;;;2.88;0.70;;;7.30;85.40;;;;;;4913717;29;20043;-88
2022/04/17 06:40:33;;;;;;;0.90;0.55;;;7.50;85.80;;;;;;4909643;29;20439;-89
2022/04/17 06:43:01;;;;;;;1.35;0.50;;;7.50;85.00;;;;;;4896387;29;20119;-88
2022/04/17 06:45:28;;;;;;;1.70;0.80;;;7.70;85.50;;;;;;4893405;29;20040;-88
2022/04/17 06:47:55;;;;;;;2.33;0.68;;;7.90;84.20;;;;;;4897835;29;20091;-88
2022/04/17 06:50:22;;;;;;;2.33;0.50;;;7.90;84.10;;;;;;4898605;29;20071;-88
2022/04/17 06:52:48;;;;;;;2.17;0.63;;;7.90;83.50;;;;;;4911864;29;20024;-88
2022/04/17 06:55:14;;;;;;;1.48;0.60;;;8.00;84.20;;;;;;4894911;29;20036;-88
2022/04/17 06:57:52;;;;;;;1.90;0.75;;;8.20;83.60;;;;;;4914023;29;20052;-89
2022/04/17 07:00:19;;;;;;;2.72;0.70;;;8.20;82.70;;;;;;4894611;29;20431;-88
2022/04/17 07:02:46;;;;;;;2.47;0.93;;;8.30;82.70;;;;;;4895361;29;20028;-89
2022/04/17 07:05:14;;;;;;;4.10;0.50;;;8.30;83.40;;;;;;4897236;29;20051;-88
2022/04/17 07:08:00;;;;;;;1.58;0.50;;;8.40;84.20;;;;;;4901651;29;20132;-89
2022/04/17 07:10:27;;;;;;;1.52;0.52;;;8.60;83.30;;;;;;4901745;29;20047;-88
2022/04/17 07:12:53;;;;;;;3.35;0.60;;;8.60;81.80;;;;;;4902393;29;20039;-88
2022/04/17 07:15:19;;;;;;;1.17;0.50;;;8.70;82.10;;;;;;4891977;29;20118;-89
2022/04/17 07:17:47;;;;;;;1.65;0.45;;;8.90;81.40;;;;;;4898660;29;20039;-89
2022/04/17 07:20:12;;;;;;;1.67;0.40;;;8.90;81.10;;;;;;4899049;29;20399;-89
2022/04/17 07:22:41;;;;;;;1.77;0.65;;;9.10;80.70;;;;;;4894242;29;20036;-88
2022/04/17 07:25:08;;;;;;;1.02;0.47;;;9.20;79.30;;;;;;4931679;23;20051;-90
2022/04/17 07:27:41;;;;;;;1.27;0.57;;;9.20;78.50;;;;;;4932164;29;20024;-90
2022/04/17 07:30:10;;;;;;;1.52;0.52;;;9.20;78.50;;;;;;4941007;29;20040;-89
2022/04/17 07:32:35;;;;;;;2.50;0.60;;;9.50;79.00;;;;;;4949690;28;20020;-90
2022/04/17 07:35:01;;;;;;;1.73;0.52;;;9.40;78.30;;;;;;4944662;28;20026;-89
2022/04/17 07:37:27;;;;;;;1.58;0.82;;;9.70;79.00;;;;;;4934326;29;20055;-89
2022/04/17 07:39:53;;;;;;;2.00;0.63;;;10.00;77.50;;;;;;4934525;29;20569;-90
2022/04/17 07:42:20;;;;;;;2.30;0.60;;;9.70;77.20;;;;;;4933777;29;20039;-90
2022/04/17 07:44:48;;;;;;;1.73;0.63;;;9.80;76.00;;;;;;4931739;29;20126;-89
2022/04/17 07:47:13;;;;;;;1.42;0.50;;;9.90;76.50;;;;;;4932698;29;20405;-90
2022/04/17 07:49:39;;;;;;;1.70;0.50;;;9.80;76.30;;;;;;4933513;29;20035;-90
2022/04/17 07:52:05;;;;;;;1.42;0.60;;;9.70;76.40;;;;;;4932605;29;20035;-90
2022/04/17 07:54:31;;;;;;;1.23;0.40;;;9.80;76.70;;;;;;4930820;29;20038;-90
2022/04/17 07:56:57;;;;;;;1.60;0.47;;;9.90;76.10;;;;;;4933000;29;20027;-90
2022/04/17 07:59:24;;;;;;;2.20;0.70;;;10.00;76.30;;;;;;4932451;29;20125;-90
2022/04/17 08:01:50;;;;;;;2.00;0.60;;;9.90;75.90;;;;;;4931923;29;20054;-89
2022/04/17 08:04:16;;;;;;;1.95;0.50;;;10.00;76.50;;;;;;4932947;29;20550;-89
2022/04/17 08:07:26;;;;;;;1.38;0.50;;;10.10;76.70;;;;;;4930096;29;20494;-90
2022/04/17 08:09:56;;;;;;;1.40;0.60;;;10.30;76.40;;;;;;4910880;29;20099;-88
2022/04/17 08:12:24;;;;;;;2.92;0.80;;;10.20;76.00;;;;;;4920617;29;20566;-88
2022/04/17 08:14:58;;;;;;;2.65;0.60;;;10.50;75.80;;;;;;4930432;29;20032;-89
2022/04/17 08:17:24;;;;;;;8.07;0.73;;;10.60;75.90;;;;;;4926356;29;20410;-88
2022/04/17 08:19:50;;;;;;;1.23;0.50;;;10.80;75.80;;;;;;4937342;29;20032;-88
2022/04/17 08:22:15;;;;;;;0.82;0.50;;;10.80;74.50;;;;;;4921518;29;20591;-88
2022/04/17 08:24:41;;;;;;;3.03;0.52;;;11.00;75.00;;;;;;4930021;28;20031;-88
2022/04/17 08:27:07;;;;;;;0.82;0.38;;;11.10;75.80;;;;;;4929691;29;20573;-87
2022/04/17 08:29:33;;;;;;;1.13;0.52;;;11.30;72.00;;;;;;4915591;29;20032;-88
2022/04/17 08:32:01;;;;;;;1.50;0.60;;;11.40;71.90;;;;;;4916363;29;20024;-87
2022/04/17 08:34:26;;;;;;;1.30;0.40;;;11.40;71.30;;;;;;4915016;29;20035;-88
2022/04/17 08:36:52;;;;;;;3.78;0.50;;;11.50;71.20;;;;;;4917274;29;20030;-87
2022/04/17 08:39:18;;;;;;;0.73;0.45;;;11.40;70.00;;;;;;4932401;29;20031;-87
2022/04/17 08:41:46;;;;;;;1.88;0.40;;;11.50;69.30;;;;;;4930924;29;20028;-87
2022/04/17 08:44:12;;;;;;;1.15;0.40;;;11.50;70.10;;;;;;4938894;28;20031;-87
2022/04/17 08:46:38;;;;;;;2.25;0.60;;;11.60;70.10;;;;;;4943871;29;20080;-88
2022/04/17 08:49:06;;;;;;;0.77;0.30;;;11.90;69.60;;;;;;4930754;29;20032;-87
2022/04/17 08:51:32;;;;;;;1.60;0.50;;;11.70;70.40;;;;;;4927227;29;20394;-87
2022/04/17 08:54:03;;;;;;;0.90;0.35;;;12.10;69.20;;;;;;4930430;29;20128;-88
2022/04/17 08:56:31;;;;;;;1.77;0.40;;;12.20;68.50;;;;;;4929949;29;20055;-88
2022/04/17 08:59:00;;;;;;;1.65;0.45;;;12.40;68.00;;;;;;4931853;29;20106;-88
2022/04/17 09:01:26;;;;;;;1.35;0.35;;;12.40;67.90;;;;;;4925980;29;20506;-88
2022/04/17 09:03:52;;;;;;;1.10;0.40;;;12.20;67.50;;;;;;4930173;29;20028;-88
2022/04/17 09:06:19;;;;;;;1.10;0.38;;;12.50;67.60;;;;;;4929934;29;20636;-88
2022/04/17 09:09:02;;;;;;;1.27;0.32;;;12.30;67.00;;;;;;4928236;29;20036;-89
2022/04/17 09:11:33;;;;;;;1.65;0.50;;;12.40;68.20;;;;;;4930702;29;20091;-87
2022/04/17 09:14:05;;;;;;;0.45;0.30;;;12.50;67.80;;;;;;4943004;28;20032;-88
2022/04/17 09:16:35;;;;;;;1.85;0.50;;;12.50;67.50;;;;;;4931671;29;20090;-88
2022/04/17 09:19:15;;;;;;;0.68;0.40;;;12.60;67.50;;;;;;4931044;29;20034;-87
2022/04/17 09:21:41;;;;;;;1.73;0.50;;;12.60;67.90;;;;;;4931639;29;20051;-89
2022/04/17 09:24:26;;;;;;;1.55;0.50;;;12.90;67.20;;;;;;4928765;29;20024;-89
2022/04/17 09:26:57;;;;;;;2.88;0.40;;;12.70;66.00;;;;;;4935817;29;20043;-88
2022/04/17 09:29:27;;;;;;;2.25;0.40;;;12.90;66.60;;;;;;4919056;29;20030;-88
2022/04/17 09:32:08;;;;;;;1.75;0.47;;;13.10;66.10;;;;;;4923509;29;20030;-88
2022/04/17 09:34:52;;;;;;;2.60;0.30;;;13.50;65.60;;;;;;4932064;29;20043;-88
2022/04/17 09:37:20;;;;;;;1.20;0.43;;;13.70;66.20;;;;;;4924045;29;20032;-88
2022/04/17 09:39:47;;;;;;;0.95;0.38;;;13.50;64.20;;;;;;4931781;29;20551;-88
2022/04/17 09:42:21;;;;;;;1.13;0.40;;;13.30;64.20;;;;;;4932835;29;20418;-90
2022/04/17 09:44:49;;;;;;;1.35;0.40;;;13.50;65.30;;;;;;4932800;29;20027;-90
2022/04/17 09:47:28;;;;;;;1.85;0.40;;;13.70;64.50;;;;;;4922895;29;20092;-90
2022/04/17 09:50:06;;;;;;;2.15;0.50;;;13.70;65.70;;;;;;4922787;29;20036;-90
2022/04/17 09:52:44;;;;;;;3.03;0.50;;;13.70;65.30;;;;;;4932903;29;20027;-90
2022/04/17 09:55:26;;;;;;;1.02;0.40;;;13.80;65.30;;;;;;4932660;29;20024;-89
2022/04/17 09:57:57;;;;;;;1.13;0.30;;;13.80;65.80;;;;;;4931742;29;20049;-90
2022/04/17 10:00:24;;;;;;;0.90;0.30;;;13.90;66.20;;;;;;4933028;29;20499;-90
2022/04/17 10:02:52;;;;;;;1.15;0.40;;;14.20;64.70;;;;;;4932917;29;20114;-89
2022/04/17 10:05:21;;;;;;;1.08;0.50;;;14.10;64.20;;;;;;4929813;29;20047;-91
2022/04/17 10:07:52;;;;;;;0.90;0.35;;;14.10;64.50;;;;;;4932867;29;20040;-90
2022/04/17 10:10:18;;;;;;;1.55;0.50;;;14.30;62.90;;;;;;4934127;29;20039;-90
2022/04/17 10:12:50;;;;;;;1.10;0.40;;;14.30;64.50;;;;;;4924829;29;20024;-89
2022/04/17 10:15:16;;;;;;;1.70;0.50;;;14.10;62.60;;;;;;4934042;29;20059;-90
2022/04/17 10:17:57;;;;;;;1.33;0.45;;;14.40;64.60;;;;;;4935710;29;20047;-91
2022/04/17 10:20:28;;;;;;;0.43;0.20;;;14.80;63.90;;;;;;4935550;29;20449;-89
2022/04/17 10:23:03;;;;;;;0.98;0.40;;;14.70;62.90;;;;;;4936344;29;20059;-90
2022/04/17 10:25:30;;;;;;;1.15;0.50;;;14.70;63.90;;;;;;4936135;29;20034;-91
2022/04/17 10:28:00;;;;;;;1.17;0.52;;;14.70;63.80;;;;;;4935694;29;20066;-89
2022/04/17 10:31:08;;;;;;;;;;;;;;;;;;;;;
2022/04/17 10:34:16;;;;;;;2.50;0.80;;;15.10;61.80;;;;;;4935422;29;20034;-90
2022/04/17 10:37:12;;;;;;;1.75;0.55;;;15.10;61.90;;;;;;4946485;29;20027;-90
2022/04/17 10:39:50;;;;;;;1.10;0.30;;;15.30;60.90;;;;;;4936402;29;20025;-90
2022/04/17 10:42:16;;;;;;;2.65;0.50;;;15.50;62.90;;;;;;4936273;29;20047;-90
2022/04/17 10:44:42;;;;;;;2.10;0.50;;;15.60;61.50;;;;;;4936121;29;20032;-89
2022/04/17 10:47:20;;;;;;;1.33;0.30;;;15.60;62.00;;;;;;4951936;29;20028;-89
2022/04/17 10:50:00;;;;;;;1.17;0.40;;;15.70;60.80;;;;;;4934251;29;20034;-91
2022/04/17 10:52:44;;;;;;;;;;;;;;;;;;;;;
2022/04/17 10:55:35;;;;;;;1.40;0.40;;;16.10;61.00;;;;;;4941460;29;20115;-91
2022/04/17 10:58:14;;;;;;;1.25;0.38;;;16.10;58.50;;;;;;4936406;29;20115;-90
2022/04/17 11:00:47;;;;;;;1.42;0.40;;;16.50;60.40;;;;;;4947551;29;20031;-91
2022/04/17 11:03:33;;;;;;;1.50;0.60;;;16.40;59.40;;;;;;4936678;29;20183;-91
2022/04/17 11:06:31;;;;;;;1.10;0.40;;;16.50;59.60;;;;;;4935960;29;20030;-89
2022/04/17 11:09:27;;;;;;;1.15;0.60;;;16.60;58.80;;;;;;4934414;29;20074;-90
2022/04/17 11:11:52;;;;;;;1.45;0.68;;;16.80;58.10;;;;;;4936124;29;20070;-88
2022/04/17 11:14:39;;;;;;;0.70;0.40;;;16.90;59.00;;;;;;4940314;29;20035;-89
2022/04/17 11:17:12;;;;;;;2.42;0.50;;;16.90;57.00;;;;;;4928646;29;20040;-91
2022/04/17 11:20:09;;;;;;;1.13;0.40;;;17.00;57.30;;;;;;4935574;29;20041;-91
2022/04/17 11:22:45;;;;;;;1.33;0.40;;;17.10;57.70;;;;;;4935203;29;20020;-90
2022/04/17 11:25:14;;;;;;;1.52;0.40;;;16.90;58.10;;;;;;4931336;29;20028;-90
2022/04/17 11:27:50;;;;;;;1.40;0.60;;;17.00;57.20;;;;;;4930703;29;20032;-91
2022/04/17 11:30:19;;;;;;;0.90;0.32;;;16.70;57.10;;;;;;4932098;29;20035;-90
2022/04/17 11:32:51;;;;;;;1.13;0.45;;;16.80;56.90;;;;;;4932327;29;20043;-91
2022/04/17 11:35:26;;;;;;;;;;;17.10;56.20;;;;;;4917660;29;20127;-91
2022/04/17 11:38:21;;;;;;;0.50;0.30;;;17.10;56.40;;;;;;4916291;29;19911;-91
2022/04/17 11:40:48;;;;;;;1.10;0.30;;;17.00;55.40;;;;;;4915231;29;20046;-90
2022/04/17 11:43:16;;;;;;;1.65;0.30;;;17.40;55.60;;;;;;4915777;29;20038;-91
2022/04/17 11:45:43;;;;;;;1.67;0.40;;;17.40;55.20;;;;;;4916107;29;20523;-92
2022/04/17 11:48:12;;;;;;;0.75;0.20;;;17.60;55.70;;;;;;4924560;29;20079;-90
2022/04/17 11:50:53;;;;;;;1.17;0.45;;;17.40;55.20;;;;;;4916367;29;20024;-91
2022/04/17 11:53:18;;;;;;;4.60;0.40;;;17.50;55.50;;;;;;4916278;29;20055;-91
2022/04/17 11:55:49;;;;;;;0.70;0.30;;;17.40;54.80;;;;;;4916889;29;20031;-90
2022/04/17 11:58:26;;;;;;;1.17;0.30;;;17.50;54.70;;;;;;4948116;29;20445;-91
2022/04/17 12:01:21;;;;;;;1.48;0.55;;;17.90;55.40;;;;;;4935234;29;20433;-91
2022/04/17 12:03:49;;;;;;;0.73;0.30;;;18.00;54.40;;;;;;4934664;29;20546;-91
2022/04/17 12:06:27;;;;;;;1.65;0.47;;;18.40;53.80;;;;;;4933972;29;20513;-90
2022/04/17 12:09:07;;;;;;;0.73;0.30;;;18.10;54.20;;;;;;4934503;29;20031;-91
2022/04/17 12:11:43;;;;;;;0.90;0.30;;;18.20;54.50;;;;;;4934705;29;20027;-91
2022/04/17 12:14:26;;;;;;;0.90;0.22;;;18.40;55.00;;;;;;4931417;29;20028;-91
2022/04/17 12:16:57;;;;;;;1.55;0.40;;;18.40;54.10;;;;;;4931235;29;20028;-91
2022/04/17 12:19:33;;;;;;;1.20;0.35;;;18.10;52.60;;;;;;4931763;29;20024;-91
2022/04/17 12:22:18;;;;;;;1.13;0.30;;;18.70;53.30;;;;;;4931738;29;20032;-91
2022/04/17 12:24:47;;;;;;;2.63;0.40;;;18.60;52.90;;;;;;4933989;29;20083;-91
2022/04/17 12:27:19;;;;;;;1.02;0.40;;;18.60;53.80;;;;;;4933775;29;20122;-91
2022/04/17 12:29:56;;;;;;;1.13;0.40;;;18.40;52.60;;;;;;4934445;29;20183;-91
2022/04/17 12:32:27;;;;;;;0.82;0.40;;;18.20;52.60;;;;;;4934318;29;20071;-91
2022/04/17 12:35:08;;;;;;;0.77;0.30;;;18.20;52.10;;;;;;4934322;29;20051;-91
2022/04/17 12:37:38;;;;;;;0.97;0.40;;;18.20;53.40;;;;;;4933295;29;20360;-90
2022/04/17 12:40:23;;;;;;;0.55;0.30;;;18.60;53.40;;;;;;4931196;29;20043;-91
2022/04/17 12:42:50;;;;;;;0.90;0.40;;;18.70;53.20;;;;;;4915000;29;20123;-91
2022/04/17 12:45:34;;;;;;;0.85;0.40;;;18.80;52.00;;;;;;4915168;29;20370;-91
2022/04/17 12:48:33;;;;;;;1.00;0.30;;;19.10;51.40;;;;;;4914876;29;20028;-92
2022/04/17 12:51:10;;;;;;;1.10;0.40;;;19.10;51.40;;;;;;4914215;29;20032;-91
2022/04/17 12:53:45;;;;;;;2.60;0.30;;;18.80;51.30;;;;;;4915356;29;20024;-90
2022/04/17 12:56:14;;;;;;;1.13;0.38;;;18.70;53.30;;;;;;4929698;29;20024;-91
2022/04/17 12:58:59;;;;;;;1.58;0.40;;;19.00;52.40;;;;;;4930203;29;20055;-90
2022/04/17 13:02:03;;;;;;;0.98;0.30;;;19.40;51.60;;;;;;4930616;29;20111;-91
2022/04/17 13:05:11;;;;;;;1.25;0.35;;;19.50;51.50;;;;;;4863167;29;20391;-91
2022/04/17 13:08:03;;;;;;;;;;;;;;;;;;;;;
2022/04/17 13:14:17;;;;;;;1.55;0.40;;;20.00;51.30;;;;;;4931942;29;20506;-91
2022/04/17 13:16:49;;;;;;;0.95;0.40;;;19.80;51.70;;;;;;4913673;29;20036;-90
2022/04/17 13:19:37;;;;;;;0.75;0.30;;;19.80;49.50;;;;;;4913092;29;20070;-92
2022/04/17 13:22:07;;;;;;;0.82;0.28;;;20.10;51.30;;;;;;4932819;29;20028;-91
2022/04/17 13:24:44;;;;;;;0.73;0.30;;;20.20;50.20;;;;;;4931547;29;20024;-90
2022/04/17 13:27:25;;;;;;;0.65;0.13;;;20.40;49.30;;;;;;4928622;29;20107;-91
2022/04/17 13:39:54;;;;;;;2.03;0.43;;;20.60;48.90;;;;;;4934730;23;20068;-90
2022/04/17 13:42:20;;;;;;;1.20;0.38;;;20.70;48.20;;;;;;4889328;29;20559;-90
2022/04/17 13:44:46;;;;;;;1.10;0.20;;;20.90;48.10;;;;;;4903018;29;20115;-90
2022/04/17 13:47:17;;;;;;;1.02;0.30;;;21.10;47.80;;;;;;4889748;29;20421;-90
2022/04/17 13:49:48;;;;;;;0.77;0.32;;;21.40;47.50;;;;;;4913853;29;20030;-90
2022/04/17 13:52:17;;;;;;;0.90;0.40;;;21.10;47.40;;;;;;4920731;29;20507;-90
2022/04/17 13:54:43;;;;;;;0.82;0.30;;;20.90;47.00;;;;;;4899995;29;20043;-90
2022/04/17 13:57:11;;;;;;;0.93;0.30;;;21.20;44.40;;;;;;4900143;29;20029;-90
2022/04/17 13:59:37;;;;;;;0.70;0.30;;;21.40;45.40;;;;;;4899972;29;20079;-90
2022/04/17 14:02:03;;;;;;;0.95;0.30;;;21.80;46.00;;;;;;4895991;29;20052;-90
2022/04/17 14:04:29;;;;;;;1.15;0.30;;;22.00;46.40;;;;;;4880846;29;20514;-90
2022/04/17 14:06:58;;;;;;;0.70;0.30;;;22.00;45.50;;;;;;4891119;29;20124;-90
2022/04/17 14:09:25;;;;;;;1.02;0.20;;;22.10;45.10;;;;;;4906350;29;20016;-90
2022/04/17 14:11:51;;;;;;;1.80;0.50;;;22.20;45.90;;;;;;4899548;29;20352;-90
2022/04/17 14:14:19;;;;;;;1.10;0.30;;;22.10;47.50;;;;;;4899103;29;20116;-91
2022/04/17 14:16:47;;;;;;;0.50;0.22;;;22.20;46.00;;;;;;4898438;29;20025;-90
2022/04/17 14:19:21;;;;;;;0.90;0.22;;;22.20;44.10;;;;;;4882457;29;20021;-91
2022/04/17 14:21:48;;;;;;;0.65;0.20;;;22.00;43.70;;;;;;4880823;29;20029;-90
2022/04/17 14:24:23;;;;;;;0.47;0.28;;;21.60;44.00;;;;;;4883824;29;20404;-90
2022/04/17 14:26:49;;;;;;;1.48;0.35;;;22.00;44.40;;;;;;4898443;29;20033;-90
2022/04/17 14:29:29;;;;;;;0.70;0.30;;;21.70;43.80;;;;;;4899968;29;20069;-90
2022/04/17 14:31:58;;;;;;;1.30;0.35;;;22.30;44.20;;;;;;4899827;29;20036;-90
2022/04/17 14:34:29;;;;;;;3.17;0.45;;;22.20;42.20;;;;;;4898605;29;20029;-90
2022/04/17 14:36:55;;;;;;;1.05;0.30;;;22.20;43.70;;;;;;4907947;29;20021;-90
2022/04/17 14:39:34;;;;;;;0.60;0.32;;;22.00;43.90;;;;;;4917824;29;20071;-90
2022/04/17 14:42:03;;;;;;;0.85;0.20;;;21.90;43.30;;;;;;4908497;29;20127;-89
2022/04/17 14:44:39;;;;;;;1.58;0.45;;;22.00;43.20;;;;;;4899348;29;20040;-90
2022/04/17 14:47:06;;;;;;;0.30;0.20;;;22.40;42.90;;;;;;4899280;29;20065;-90
2022/04/17 14:49:32;;;;;;;1.38;0.40;;;21.90;41.70;;;;;;4899017;29;20039;-90
2022/04/17 14:52:01;;;;;;;0.57;0.20;;;22.00;42.30;;;;;;4882040;29;20059;-89
2022/04/17 14:54:36;;;;;;;0.50;0.32;;;22.10;42.50;;;;;;4880931;29;20607;-90
2022/04/17 14:57:06;;;;;;;0.68;0.20;;;21.90;43.60;;;;;;4877882;29;20037;-90
2022/04/17 14:59:37;;;;;;;0.80;0.20;;;21.70;41.80;;;;;;4890088;29;20029;-90
2022/04/17 15:02:07;;;;;;;0.45;0.20;;;21.90;42.00;;;;;;4900955;29;20044;-90
2022/04/17 15:04:34;;;;;;;0.35;0.20;;;21.70;42.40;;;;;;4899134;29;20515;-90